Time;durP1;ratioP1;P1;durP2;ratioP2;P2;SDS_P1;SDS_P2;PMS_P1;PMS_P2;Temp;Humidity;BMP_temperature;BMP_pressure;BME280_temperature;BME280_humidity;BME280_pressure;Samples;Min_cycle;Max_cycle;Signal;HPM_P1;HPM_P2
2022/12/01 00:00:52;;;;;;;25.57;13.38;;;;;;;-0.93;66.94;100831.20;1747193;82;21533;-38
2022/12/01 00:03:19;;;;;;;25.12;12.40;;;;;;;-1.01;66.94;100832.42;1746808;82;21244;-39
2022/12/01 00:05:46;;;;;;;28.73;14.38;;;;;;;-1.06;67.07;100827.55;1746686;82;21520;-38
2022/12/01 00:08:13;;;;;;;27.42;14.38;;;;;;;-1.05;67.18;100826.51;1746810;82;21084;-38
2022/12/01 00:10:40;;;;;;;34.67;14.45;;;;;;;-1.02;67.12;100833.50;1746774;82;21024;-38
2022/12/01 00:13:07;;;;;;;26.87;14.10;;;;;;;-1.05;67.02;100829.17;1746974;82;21096;-38
2022/12/01 00:15:35;;;;;;;22.30;12.10;;;;;;;-1.06;67.22;100823.05;1747158;82;21162;-39
2022/12/01 00:18:06;;;;;;;23.85;14.10;;;;;;;-1.00;67.17;100824.72;1747123;82;20996;-38
2022/12/01 00:20:34;;;;;;;29.37;14.43;;;;;;;-0.97;67.04;100830.88;1747071;82;21025;-39
2022/12/01 00:23:01;;;;;;;28.62;13.15;;;;;;;-0.98;66.80;100830.62;1747060;82;20980;-38
2022/12/01 00:25:27;;;;;;;30.70;13.70;;;;;;;-0.99;66.84;100830.33;1752682;81;20972;-38
2022/12/01 00:27:55;;;;;;;26.30;13.22;;;;;;;-0.96;66.87;100829.02;1763996;81;21118;-38
2022/12/01 00:30:21;;;;;;;26.82;13.32;;;;;;;-0.95;66.76;100831.97;1763923;81;20985;-38
2022/12/01 00:32:48;;;;;;;25.77;13.38;;;;;;;-0.94;66.51;100826.92;1763923;81;21087;-38
2022/12/01 00:35:15;;;;;;;27.52;13.85;;;;;;;-0.94;66.41;100825.59;1763797;81;21004;-38
2022/12/01 00:37:43;;;;;;;26.60;13.43;;;;;;;-0.94;66.25;100832.25;1764142;81;21596;-38
2022/12/01 00:40:12;;;;;;;26.87;13.60;;;;;;;-0.98;66.30;100826.63;1764072;81;21900;-38
2022/12/01 00:42:38;;;;;;;24.40;13.80;;;;;;;-0.95;66.24;100826.64;1764033;81;21016;-38
2022/12/01 00:45:07;;;;;;;27.42;13.53;;;;;;;-0.98;65.93;100825.81;1764037;81;21064;-38
2022/12/01 00:47:33;;;;;;;26.50;13.53;;;;;;;-1.07;65.80;100822.78;1763941;81;20997;-39
2022/12/01 00:50:00;;;;;;;25.27;13.60;;;;;;;-1.15;65.65;100820.53;1764032;81;21035;-38
2022/12/01 00:52:27;;;;;;;24.25;12.45;;;;;;;-1.22;65.62;100821.78;1763902;81;23217;-38
2022/12/01 00:54:53;;;;;;;24.55;12.65;;;;;;;-1.32;65.60;100812.61;1764105;81;20960;-38
2022/12/01 00:57:20;;;;;;;22.02;12.78;;;;;;;-1.42;65.67;100818.31;1763890;81;21020;-38
2022/12/01 00:59:48;;;;;;;24.67;11.63;;;;;;;-1.51;65.70;100816.59;1763952;81;21633;-38
2022/12/01 01:02:16;;;;;;;20.60;11.22;;;;;;;-1.60;66.13;100826.05;1763872;81;21044;-38
2022/12/01 01:04:43;;;;;;;23.10;11.88;;;;;;;-1.58;66.21;100815.95;1763954;81;23162;-38
2022/12/01 01:07:10;;;;;;;24.10;11.95;;;;;;;-1.64;66.13;100816.91;1763921;81;20987;-38
2022/12/01 01:09:37;;;;;;;24.07;13.10;;;;;;;-1.66;66.11;100810.24;1763981;81;20936;-39
2022/12/01 01:12:04;;;;;;;23.12;11.97;;;;;;;-1.68;66.19;100809.14;1764122;81;21027;-38
2022/12/01 01:14:30;;;;;;;21.73;10.85;;;;;;;-1.65;66.39;100807.35;1764144;81;21028;-38
2022/12/01 01:16:57;;;;;;;20.88;12.50;;;;;;;-1.62;66.53;100813.50;1764272;81;21152;-38
2022/12/01 01:19:24;;;;;;;21.85;12.78;;;;;;;-1.56;66.51;100809.87;1764286;81;21497;-38
2022/12/01 01:21:51;;;;;;;20.05;11.55;;;;;;;-1.57;66.49;100816.23;1764270;81;20940;-38
2022/12/01 01:24:17;;;;;;;21.40;11.75;;;;;;;-1.54;66.32;100806.43;1764207;81;20996;-38
2022/12/01 01:26:44;;;;;;;20.25;11.50;;;;;;;-1.55;66.31;100807.47;1764187;81;21012;-38
2022/12/01 01:29:11;;;;;;;23.83;12.33;;;;;;;-1.56;66.27;100809.87;1763904;81;23134;-38
2022/12/01 01:31:38;;;;;;;18.82;10.32;;;;;;;-1.56;66.24;100807.22;1760278;80;20933;-39
2022/12/01 01:34:05;;;;;;;21.10;11.48;;;;;;;-1.54;66.30;100809.09;1758096;81;21033;-38
2022/12/01 01:36:32;;;;;;;29.48;11.22;;;;;;;-1.50;66.24;100813.41;1758365;81;20997;-38
2022/12/01 01:39:00;;;;;;;23.87;11.18;;;;;;;-1.55;65.98;100810.13;1758330;81;21789;-38
2022/12/01 01:41:27;;;;;;;17.30;10.28;;;;;;;-1.56;66.02;100810.39;1758324;81;21230;-38
2022/12/01 01:44:00;;;;;;;24.30;11.80;;;;;;;-1.58;65.90;100809.30;1758106;81;21016;-38
2022/12/01 01:46:33;;;;;;;19.67;10.82;;;;;;;-1.63;65.79;100805.23;1758289;81;20941;-39
2022/12/01 01:49:06;;;;;;;23.27;11.53;;;;;;;-1.63;65.85;100809.22;1758212;81;21084;-38
2022/12/01 01:51:47;;;;;;;21.97;10.38;;;;;;;-1.62;65.76;100794.89;1758401;81;20969;-38
2022/12/01 01:54:30;;;;;;;20.95;10.72;;;;;;;-1.64;65.68;100800.96;1758085;81;23156;-38
2022/12/01 01:56:57;;;;;;;20.97;10.58;;;;;;;-1.70;65.75;100799.82;1758395;81;21008;-39
2022/12/01 01:59:28;;;;;;;20.00;10.25;;;;;;;-1.70;65.98;100796.64;1758268;81;20992;-38
2022/12/01 02:02:05;;;;;;;19.27;11.00;;;;;;;-1.62;65.84;100792.23;1758333;81;21055;-38
2022/12/01 02:04:43;;;;;;;18.02;9.40;;;;;;;-1.58;65.78;100796.00;1758272;81;21079;-38
2022/12/01 02:07:12;;;;;;;20.62;10.53;;;;;;;-1.52;65.74;100794.23;1757883;81;21968;-38
2022/12/01 02:09:38;;;;;;;19.82;9.53;;;;;;;-1.50;65.47;100792.92;1763334;81;20964;-38
2022/12/01 02:12:22;;;;;;;19.52;10.38;;;;;;;-1.52;65.47;100796.37;1757859;81;21589;-38
2022/12/01 02:14:58;;;;;;;17.70;9.85;;;;;;;-1.58;65.56;100793.87;1763245;81;21589;-38
2022/12/01 02:17:38;;;;;;;19.35;10.10;;;;;;;-1.67;65.54;100794.81;1757338;81;21044;-38
2022/12/01 02:20:28;;;;;;;17.65;9.30;;;;;;;-1.76;65.76;100793.09;1736129;80;21257;-38
2022/12/01 02:23:49;;;;;;;17.92;10.18;;;;;;;-1.77;66.04;100790.67;1719956;80;21038;-38
2022/12/01 02:26:49;;;;;;;20.25;8.95;;;;;;;-1.77;66.26;100786.16;1759055;80;20974;-38
2022/12/01 07:22:55;;;;;;;46.83;23.90;;;;;;;-3.18;72.75;100825.56;1785005;80;22662;-38
2022/12/01 07:25:22;;;;;;;40.98;21.87;;;;;;;-3.03;71.91;100825.59;1774010;80;20995;-38
2022/12/01 07:27:49;;;;;;;40.30;21.25;;;;;;;-2.99;71.63;100825.41;1738527;82;21155;-38
2022/12/01 07:30:16;;;;;;;34.50;19.27;;;;;;;-2.94;71.10;100832.95;1738509;82;20969;-38
2022/12/01 07:32:43;;;;;;;31.75;18.50;;;;;;;-2.85;70.62;100831.53;1746460;82;21038;-37
2022/12/01 07:35:10;;;;;;;26.95;16.87;;;;;;;-2.77;70.41;100829.05;1746568;82;21165;-38
2022/12/01 07:37:37;;;;;;;34.38;18.52;;;;;;;-2.62;70.11;100830.67;1746662;82;21651;-38
2022/12/01 07:40:07;;;;;;;31.62;18.25;;;;;;;-2.50;69.45;100833.27;1746654;82;21224;-38
2022/12/01 07:42:33;;;;;;;36.55;19.17;;;;;;;-2.46;68.70;100839.19;1746725;82;21507;-38
2022/12/01 07:45:00;;;;;;;29.40;17.10;;;;;;;-2.39;68.12;100835.07;1746798;81;21519;-38
2022/12/01 07:47:27;;;;;;;33.50;17.82;;;;;;;-2.33;68.04;100837.59;1746461;82;21472;-38
2022/12/01 07:49:54;;;;;;;32.48;17.27;;;;;;;-2.24;67.46;100830.84;1746769;82;21052;-38
2022/12/01 07:52:21;;;;;;;35.15;18.60;;;;;;;-2.15;67.22;100829.12;1746787;81;21136;-38
2022/12/01 07:54:48;;;;;;;30.68;17.90;;;;;;;-2.08;67.49;100831.11;1746819;81;21001;-38
2022/12/01 07:57:14;;;;;;;31.05;18.60;;;;;;;-1.95;67.14;100836.11;1746743;81;20973;-38
2022/12/01 07:59:41;;;;;;;40.98;22.20;;;;;;;-1.81;66.75;100826.77;1746820;81;21028;-38
2022/12/01 08:02:09;;;;;;;55.05;26.45;;;;;;;-1.71;66.08;100828.25;1746906;81;21100;-38
2022/12/01 08:04:36;;;;;;;50.20;25.75;;;;;;;-1.61;65.85;100820.95;1746677;82;21136;-38
2022/12/01 08:07:02;;;;;;;45.52;24.18;;;;;;;-1.52;65.73;100820.30;1746822;82;20961;-38
2022/12/01 08:09:30;;;;;;;46.30;23.65;;;;;;;-1.43;65.04;100818.83;1746501;82;21029;-38
2022/12/01 08:11:56;;;;;;;45.48;24.05;;;;;;;-1.35;65.22;100820.25;1746532;81;21020;-38
2022/12/01 08:14:23;;;;;;;40.33;23.12;;;;;;;-1.27;64.69;100809.73;1746605;81;21005;-38
2022/12/01 08:16:50;;;;;;;39.85;22.25;;;;;;;-1.15;64.79;100813.07;1746712;81;21230;-38
2022/12/01 08:19:17;;;;;;;40.95;21.85;;;;;;;-1.09;64.41;100818.22;1746616;81;21005;-38
2022/12/01 08:21:44;;;;;;;33.18;20.88;;;;;;;-0.97;64.23;100816.78;1747602;81;20992;-39
2022/12/01 08:24:10;;;;;;;35.10;19.67;;;;;;;-0.92;63.89;100816.84;1748864;82;21432;-38
2022/12/01 08:26:38;;;;;;;35.15;21.42;;;;;;;-0.77;63.86;100818.85;1748869;82;21125;-38
2022/12/01 08:29:05;;;;;;;33.98;19.50;;;;;;;-0.64;63.60;100819.30;1748985;82;21353;-38
2022/12/01 08:31:34;;;;;;;35.17;19.70;;;;;;;-0.51;63.00;100816.23;1748859;82;21016;-38
2022/12/01 08:34:06;;;;;;;27.90;15.30;;;;;;;-0.37;62.68;100813.16;1749239;82;20946;-38
2022/12/01 08:36:36;;;;;;;41.20;20.10;;;;;;;-0.26;62.18;100809.03;1749087;82;20965;-39
2022/12/01 08:39:02;;;;;;;42.00;23.22;;;;;;;-0.16;62.42;100810.45;1748988;82;21033;-38
2022/12/01 08:41:30;;;;;;;39.53;21.40;;;;;;;-0.06;62.37;100812.41;1748910;82;21225;-38
2022/12/01 08:43:58;;;;;;;40.95;21.42;;;;;;;0.07;61.74;100811.97;1749353;82;21031;-38
2022/12/01 08:46:33;;;;;;;38.55;20.97;;;;;;;0.19;61.68;100809.14;1748968;82;21060;-38
2022/12/01 08:49:01;;;;;;;50.58;23.62;;;;;;;0.35;61.69;100810.84;1749100;82;20977;-38
2022/12/01 08:51:27;;;;;;;41.77;20.77;;;;;;;0.51;60.99;100810.42;1749249;82;21017;-38
2022/12/01 08:53:56;;;;;;;41.15;21.20;;;;;;;0.64;60.83;100807.28;1748937;82;21102;-38
2022/12/01 08:56:38;;;;;;;40.05;20.50;;;;;;;0.76;60.04;100803.90;1748979;82;21525;-39
2022/12/01 08:59:05;;;;;;;34.60;20.68;;;;;;;0.79;59.68;100808.70;1749283;82;21508;-38
2022/12/01 09:01:32;;;;;;;34.90;19.60;;;;;;;0.78;59.82;100809.77;1749046;82;21088;-38
2022/12/01 09:04:09;;;;;;;29.48;17.85;;;;;;;0.80;59.74;100803.12;1749407;82;21053;-38
2022/12/01 09:06:41;;;;;;;32.60;16.87;;;;;;;0.88;59.39;100801.81;1749139;82;21157;-38
2022/12/01 09:09:11;;;;;;;30.15;17.65;;;;;;;0.88;59.39;100805.28;1749675;82;21542;-39
2022/12/01 09:11:37;;;;;;;23.93;13.13;;;;;;;0.98;59.51;100797.85;1749286;82;21064;-38
2022/12/01 09:14:04;;;;;;;34.55;17.80;;;;;;;1.04;59.52;100792.81;1749142;82;21526;-38
2022/12/01 09:16:31;;;;;;;24.80;16.37;;;;;;;1.18;59.72;100796.59;1749084;82;20982;-38
2022/12/01 09:18:57;;;;;;;24.90;15.68;;;;;;;1.34;59.36;100790.78;1749387;82;22070;-38
2022/12/01 09:21:27;;;;;;;28.07;15.28;;;;;;;1.47;58.29;100797.47;1748610;82;21039;-39
2022/12/01 09:23:53;;;;;;;29.70;15.33;;;;;;;1.53;58.20;100793.23;1748995;82;20997;-39
2022/12/01 09:26:22;;;;;;;29.87;17.55;;;;;;;1.62;58.06;100792.16;1749097;82;21625;-38
2022/12/01 09:28:52;;;;;;;23.40;13.45;;;;;;;1.74;57.54;100783.38;1749231;82;21505;-39
2022/12/01 09:31:22;;;;;;;29.18;14.55;;;;;;;1.78;56.81;100784.97;1749090;82;21298;-38
2022/12/01 09:33:54;;;;;;;31.45;16.40;;;;;;;1.82;56.80;100789.52;1749020;81;21252;-38
2022/12/01 09:36:21;;;;;;;34.55;16.87;;;;;;;1.95;57.07;100787.64;1748929;82;21073;-38
2022/12/01 09:38:48;;;;;;;29.92;14.87;;;;;;;2.14;57.39;100786.03;1749139;82;21614;-38
2022/12/01 09:41:34;;;;;;;23.30;11.25;;;;;;;2.30;55.60;100784.69;1749025;82;21068;-38
2022/12/01 09:44:32;;;;;;;24.63;13.43;;;;;;;2.33;55.17;100784.13;1749117;82;21148;-38
2022/12/01 09:47:24;;;;;;;20.97;11.50;;;;;;;2.36;55.37;100778.27;1748868;82;21479;-38
2022/12/01 09:50:08;;;;;;;22.00;12.58;;;;;;;2.43;55.11;100778.77;1749226;82;21594;-38
2022/12/01 09:52:50;;;;;;;23.77;12.25;;;;;;;2.49;54.47;100777.16;1747505;82;21101;-39
2022/12/01 09:55:21;;;;;;;19.32;11.88;;;;;;;2.51;54.19;100779.58;1748409;82;21009;-39
2022/12/01 09:57:49;;;;;;;27.32;12.65;;;;;;;2.46;54.30;100779.59;1749574;82;21089;-38
2022/12/01 10:00:25;;;;;;;18.37;11.45;;;;;;;2.44;54.63;100778.50;1749089;82;21577;-38
2022/12/01 10:03:23;;;;;;;19.60;11.25;;;;;;;2.45;54.74;100786.00;1749128;82;20926;-38
2022/12/01 10:05:54;;;;;;;22.30;11.70;;;;;;;2.55;53.80;100784.11;1749002;82;21562;-38
2022/12/01 10:08:25;;;;;;;22.82;12.63;;;;;;;2.49;54.00;100779.03;1749116;82;21463;-38
2022/12/01 10:10:55;;;;;;;22.82;11.68;;;;;;;2.57;55.03;100780.61;1749222;82;21741;-39
2022/12/01 10:13:24;;;;;;;23.40;12.75;;;;;;;2.81;54.96;100780.80;1748916;82;20991;-39
2022/12/01 10:15:59;;;;;;;21.52;11.57;;;;;;;3.13;54.26;100772.39;1749281;81;20985;-39
2022/12/01 10:18:56;;;;;;;20.65;11.28;;;;;;;3.41;53.73;100769.55;1748483;82;21073;-38
2022/12/01 10:21:50;;;;;;;21.05;11.40;;;;;;;3.60;53.19;100766.48;1719076;82;21009;-39
2022/12/01 10:24:43;;;;;;;21.77;11.97;;;;;;;3.74;52.00;100764.77;1748838;81;21303;-39
2022/12/01 10:27:31;;;;;;;21.00;11.48;;;;;;;3.89;52.05;100756.60;1716005;82;21515;-39
2022/12/01 10:30:18;;;;;;;17.05;10.70;;;;;;;4.01;51.33;100756.79;1748672;82;21429;-39
2022/12/01 10:33:01;;;;;;;16.67;10.50;;;;;;;4.11;51.00;100760.73;1749042;82;20902;-39
2022/12/01 10:35:35;;;;;;;20.02;11.40;;;;;;;4.06;50.88;100754.86;1748212;82;20994;-39
2022/12/01 15:48:08;;;;;;;20.25;12.23;;;;;;;-0.47;69.49;100721.97;1756295;80;23415;-38
2022/12/01 15:50:40;;;;;;;20.23;12.78;;;;;;;-0.30;68.50;100723.19;1738663;81;20994;-38
2022/12/01 15:53:32;;;;;;;24.52;12.93;;;;;;;-0.30;68.28;100725.85;1761143;81;21226;-38
2022/12/01 15:56:06;;;;;;;21.45;12.30;;;;;;;-0.30;68.10;100721.33;1761049;81;20921;-38
2022/12/01 15:58:43;;;;;;;22.85;13.50;;;;;;;-0.26;67.87;100718.95;1761078;81;20925;-38
2022/12/01 16:01:18;;;;;;;23.40;13.75;;;;;;;-0.20;67.48;100717.41;1761348;81;20930;-38
2022/12/01 16:03:50;;;;;;;23.75;13.53;;;;;;;-0.17;67.07;100715.56;1761124;81;21506;-38
2022/12/01 16:06:17;;;;;;;25.90;14.38;;;;;;;-0.17;66.87;100712.09;1761211;81;21144;-38
2022/12/01 16:08:58;;;;;;;23.00;14.47;;;;;;;-0.16;66.79;100709.70;1761107;81;20953;-38
2022/12/01 16:11:25;;;;;;;26.05;15.60;;;;;;;-0.12;66.64;100702.80;1760751;81;20988;-38
2022/12/01 16:14:20;;;;;;;28.62;16.82;;;;;;;-0.15;66.21;100702.80;1761188;81;21493;-38
2022/12/01 16:16:47;;;;;;;30.02;16.55;;;;;;;-0.18;65.97;100707.81;1761153;81;21060;-37
2022/12/01 16:19:28;;;;;;;27.00;16.00;;;;;;;-0.28;66.28;100710.39;1755410;81;21146;-38
2022/12/01 16:22:18;;;;;;;29.95;17.12;;;;;;;-0.29;66.20;100702.92;1761114;80;21024;-38
2022/12/01 16:24:52;;;;;;;35.08;18.50;;;;;;;-0.33;66.28;100706.35;1761026;81;21017;-38
2022/12/01 16:27:28;;;;;;;29.85;17.05;;;;;;;-0.31;66.35;100705.58;1760698;81;21629;-38
2022/12/01 16:30:01;;;;;;;34.33;19.27;;;;;;;-0.30;66.34;100707.20;1761359;81;21538;-38
2022/12/01 16:32:41;;;;;;;33.35;17.80;;;;;;;-0.26;66.00;100705.09;1761196;81;21842;-38
2022/12/01 16:35:30;;;;;;;29.50;17.37;;;;;;;-0.28;65.94;100705.06;1761436;81;20964;-38
2022/12/01 16:37:57;;;;;;;33.53;18.10;;;;;;;-0.23;65.75;100701.11;1760886;81;20937;-38
2022/12/01 16:40:24;;;;;;;29.37;17.37;;;;;;;-0.25;65.70;100697.91;1761457;81;21478;-38
2022/12/01 16:42:52;;;;;;;31.27;17.48;;;;;;;-0.21;65.63;100697.14;1761290;81;20997;-38
2022/12/01 16:45:19;;;;;;;27.82;17.20;;;;;;;-0.19;65.51;100707.00;1761370;81;21090;-38
2022/12/01 16:47:47;;;;;;;34.75;17.40;;;;;;;-0.17;65.21;100701.42;1761411;80;20937;-38
2022/12/01 16:50:18;;;;;;;34.20;18.50;;;;;;;-0.24;65.25;100698.19;1731353;82;20928;-38
2022/12/01 16:52:45;;;;;;;32.83;19.42;;;;;;;-0.24;65.38;100706.96;1729598;83;20973;-38
2022/12/01 16:55:24;;;;;;;33.78;18.90;;;;;;;-0.22;65.56;100696.86;1761333;81;21084;-38
2022/12/01 16:57:51;;;;;;;36.80;19.17;;;;;;;-0.21;65.60;100701.66;1761065;81;21232;-38
2022/12/01 17:00:19;;;;;;;30.52;17.75;;;;;;;-0.18;65.45;100698.48;1761030;81;20905;-38
2022/12/01 17:02:46;;;;;;;29.63;17.30;;;;;;;-0.22;65.52;100693.39;1761068;81;20937;-38
2022/12/01 17:05:12;;;;;;;27.90;16.12;;;;;;;-0.21;65.41;100693.67;1760913;81;21420;-38
2022/12/01 17:07:40;;;;;;;24.67;15.15;;;;;;;-0.18;65.33;100699.81;1760988;81;21514;-38
2022/12/01 17:10:09;;;;;;;25.20;14.78;;;;;;;-0.20;65.23;100697.42;1760923;81;23173;-38
2022/12/01 17:12:36;;;;;;;17.07;11.12;;;;;;;-0.20;65.37;100696.62;1761546;81;20940;-38
2022/12/01 17:15:05;;;;;;;29.10;14.83;;;;;;;-0.16;65.25;100700.38;1761060;81;21027;-38
2022/12/01 17:17:32;;;;;;;26.37;15.28;;;;;;;-0.16;65.32;100704.38;1761226;81;21004;-38
2022/12/01 17:19:59;;;;;;;26.37;14.23;;;;;;;-0.11;65.29;100704.41;1761117;81;20992;-38
2022/12/01 17:22:26;;;;;;;26.85;14.85;;;;;;;-0.12;65.21;100697.47;1761191;81;21337;-38
2022/12/01 17:24:54;;;;;;;29.92;14.23;;;;;;;-0.14;65.28;100699.57;1761322;81;21538;-38
2022/12/01 17:27:23;;;;;;;30.75;14.65;;;;;;;-0.13;65.24;100699.85;1761144;81;21011;-38
2022/12/01 17:29:49;;;;;;;21.73;13.38;;;;;;;-0.16;65.38;100701.18;1761035;81;21545;-38
2022/12/01 17:32:16;;;;;;;25.50;13.35;;;;;;;-0.15;65.27;100696.66;1761061;81;20940;-38
2022/12/01 17:34:43;;;;;;;26.07;13.43;;;;;;;-0.14;65.44;100696.91;1761085;81;21162;-38
2022/12/01 17:37:10;;;;;;;24.15;13.85;;;;;;;-0.13;65.40;100694.52;1760912;81;21019;-38
2022/12/01 17:39:36;;;;;;;25.12;13.32;;;;;;;-0.14;65.54;100695.58;1761202;81;21035;-38
2022/12/01 17:42:03;;;;;;;25.30;14.00;;;;;;;-0.13;65.52;100697.19;1760907;81;21368;-38
2022/12/01 17:44:31;;;;;;;23.40;13.22;;;;;;;-0.12;65.75;100690.80;1761337;81;21502;-38
2022/12/01 17:46:57;;;;;;;23.92;14.10;;;;;;;-0.05;65.70;100695.39;1759620;81;21502;-38
2022/12/01 17:49:24;;;;;;;22.05;13.38;;;;;;;-0.04;65.71;100690.31;1758131;81;20965;-38
2022/12/01 17:51:51;;;;;;;24.32;12.80;;;;;;;-0.07;65.70;100693.50;1758163;81;20949;-38
2022/12/01 17:54:20;;;;;;;21.97;13.98;;;;;;;-0.08;65.73;100697.22;1758228;81;21505;-38
2022/12/01 17:56:47;;;;;;;23.35;13.62;;;;;;;-0.10;65.80;100693.47;1758269;81;21022;-38
2022/12/01 17:59:14;;;;;;;23.40;13.55;;;;;;;-0.05;65.68;100699.39;1758356;81;21867;-38
2022/12/01 18:01:42;;;;;;;23.40;13.95;;;;;;;-0.03;65.51;100695.39;1758122;81;21000;-38
2022/12/01 18:04:08;;;;;;;26.80;14.15;;;;;;;-0.04;65.26;100692.98;1758020;81;21012;-38
2022/12/01 18:06:35;;;;;;;21.95;13.53;;;;;;;-0.07;65.28;100696.17;1758018;81;21044;-38
2022/12/01 18:09:03;;;;;;;26.20;14.28;;;;;;;-0.05;65.27;100694.06;1758060;81;21095;-38
2022/12/01 18:11:30;;;;;;;25.85;13.85;;;;;;;-0.05;65.23;100696.73;1758116;81;21257;-38
2022/12/01 18:13:59;;;;;;;22.87;14.00;;;;;;;-0.07;65.16;100694.84;1758006;81;21498;-38
2022/12/01 18:16:30;;;;;;;25.45;14.95;;;;;;;-0.09;65.08;100689.75;1730716;81;20988;-38
2022/12/01 18:18:58;;;;;;;25.60;15.10;;;;;;;-0.10;65.08;100684.70;1757875;81;21538;-38
2022/12/01 18:21:25;;;;;;;22.22;14.18;;;;;;;-0.14;65.03;100685.72;1757976;81;21016;-38
2022/12/01 18:23:55;;;;;;;25.05;14.83;;;;;;;-0.18;65.04;100689.16;1758012;81;23112;-38
2022/12/01 18:26:22;;;;;;;25.27;14.55;;;;;;;-0.25;65.15;100685.92;1757961;81;22039;-38
2022/12/01 18:28:57;;;;;;;27.48;14.75;;;;;;;-0.24;65.26;100687.53;1758083;81;20964;-38
2022/12/01 18:31:24;;;;;;;25.45;14.35;;;;;;;-0.27;65.34;100685.36;1758412;81;21498;-38
2022/12/01 18:33:51;;;;;;;24.02;13.90;;;;;;;-0.30;65.48;100687.21;1758054;81;21581;-38
2022/12/01 18:36:22;;;;;;;24.63;14.90;;;;;;;-0.29;65.57;100688.83;1758063;81;21596;-38
2022/12/01 18:38:49;;;;;;;24.85;15.18;;;;;;;-0.30;65.59;100696.53;1758097;81;21064;-38
2022/12/01 18:41:17;;;;;;;23.65;13.20;;;;;;;-0.28;65.59;100690.41;1758256;81;21680;-38
2022/12/01 18:43:44;;;;;;;25.12;13.90;;;;;;;-0.25;65.59;100691.25;1758096;81;22109;-38
2022/12/01 18:46:13;;;;;;;27.13;16.67;;;;;;;-0.20;65.56;100692.62;1758057;81;20988;-38
2022/12/01 18:48:46;;;;;;;23.65;14.28;;;;;;;-0.15;65.48;100701.46;1759756;81;21244;-38
2022/12/01 22:59:49;;;;;;;24.00;14.85;;;;;;;-2.14;71.84;100677.98;1778382;79;21992;-38
2022/12/01 23:02:32;;;;;;;23.45;13.62;;;;;;;-1.91;71.00;100678.58;1754186;81;20992;-38
2022/12/01 23:05:08;;;;;;;24.15;13.30;;;;;;;-1.84;70.46;100673.88;1751426;82;21133;-38
2022/12/01 23:07:40;;;;;;;23.95;14.05;;;;;;;-1.77;70.03;100670.52;1737292;81;20965;-38
2022/12/01 23:10:25;;;;;;;26.07;15.00;;;;;;;-1.71;69.10;100670.59;1730689;82;21053;-38
2022/12/01 23:12:53;;;;;;;23.27;12.80;;;;;;;-1.67;68.95;100673.84;1751193;82;21541;-38
2022/12/01 23:15:36;;;;;;;26.93;13.65;;;;;;;-1.57;68.61;100676.63;1751498;82;21068;-38
2022/12/01 23:18:15;;;;;;;28.35;13.88;;;;;;;-1.48;68.29;100671.67;1750985;82;21227;-37
2022/12/01 23:20:43;;;;;;;25.10;14.07;;;;;;;-1.45;67.40;100670.64;1751456;82;20934;-38
2022/12/01 23:23:17;;;;;;;27.15;14.25;;;;;;;-1.44;67.30;100669.59;1751208;82;20953;-38
2022/12/01 23:25:45;;;;;;;26.20;13.38;;;;;;;-1.39;66.99;100666.19;1750869;81;21514;-38
2022/12/01 23:28:12;;;;;;;23.35;13.13;;;;;;;-1.37;66.38;100662.25;1751162;82;21452;-38
2022/12/01 23:30:40;;;;;;;25.72;14.23;;;;;;;-1.37;65.93;100663.58;1751215;82;21971;-38
2022/12/01 23:33:24;;;;;;;31.95;14.47;;;;;;;-1.44;65.81;100664.28;1751109;82;20993;-38
2022/12/01 23:36:17;;;;;;;26.60;13.98;;;;;;;-1.51;65.27;100659.69;1717060;83;21004;-38
2022/12/01 23:38:46;;;;;;;27.17;14.10;;;;;;;-1.63;65.61;100666.17;1702166;84;21055;-37
2022/12/01 23:41:28;;;;;;;24.30;14.07;;;;;;;-1.69;65.75;100661.86;1710106;84;21544;-38
2022/12/01 23:43:56;;;;;;;22.17;13.88;;;;;;;-1.69;65.64;100659.98;1708721;84;23183;-38
2022/12/01 23:46:24;;;;;;;25.35;13.43;;;;;;;-1.73;65.65;100659.39;1679603;84;21601;-38
2022/12/01 23:49:01;;;;;;;26.35;13.30;;;;;;;-1.79;65.67;100656.66;1679759;83;20915;-38
2022/12/01 23:51:39;;;;;;;25.90;13.25;;;;;;;-1.85;65.88;100656.86;1710036;84;21285;-38
2022/12/01 23:54:13;;;;;;;25.72;13.35;;;;;;;-1.82;65.87;100665.66;1710452;83;20998;-38
2022/12/01 23:56:40;;;;;;;24.37;12.98;;;;;;;-1.85;65.95;100660.84;1709992;83;21106;-38
2022/12/01 23:59:12;;;;;;;27.48;13.75;;;;;;;-1.85;66.15;100660.84;1709971;83;20935;-38
